Pagina principale
METAR-TAF:

METAR-TAF

Aeroporti :

Aeroporto Internazionale di Bassora

Bassora, Iraq

latitudine: 30-32-56N, longitudine: 47-39-45E, altezza: 1 m

Osservazione

Il bollettino è stato emesso 32 minuti fa, alle 02:00 UTC
Vento calmo
Temperature 27°C
Umidità 34%
Pressione 1006 hPa
Visibilità 10 km o più
nessuna nube inferiore a 1500 m e nessun cumulonembo

METAR: ORMM 160200Z 00000KT CAVOK 27/10 Q1006 NOSIG

Ora: 05:32 (02:32 UTC)

Previsione

Il bollettino è stato emesso 4 ore e 32 minuti fa, alle 22:00 UTC
Previsione valida dal 16 alle 00 UTC al 16 alle 24 UTC
Vento 3 kt da direzioni variabili
Visibilità 10 km o più
nessuna nube inferiore a 1500 m e nessun cumulonembo

TAF: ORMM 152200Z 1600/1624 VRB03KT CAVOK

Osservazioni e previsioni meteorologiche di più di 4000 aeroporti (messaggi METAR e TAF).

Le stazioni disponibili sono rappresentate dai dischi gialli e rossi sulla carta.

Puntare il mouse per vedere il nome della stazione.

Clicca sopra per visualizzare le osservazioni e previsioni meteorologiche.

Per cambiare la mappa : fare clic sui pulsanti verdi con una croce nera per ingrandire, il pulsante verde con un trattino per diminuire, o sulla freccia verde per le mappe adiacenti.


METAR-TAF: